createdAt,value
2023-01-28T00:00:06.526Z,65.03
2023-01-28T00:02:08.978Z,65.11
2023-01-28T00:04:11.301Z,64.77
2023-01-28T00:06:15.671Z,64.36
2023-01-28T00:08:17.390Z,64.32
2023-01-28T00:10:19.178Z,64.45
2023-01-28T00:12:20.832Z,65.22
2023-01-28T00:14:22.342Z,65.62
2023-01-28T00:16:23.955Z,66.26
2023-01-28T00:18:25.632Z,66.16
2023-01-28T00:20:27.323Z,65.91
2023-01-28T00:22:31.324Z,65.98
2023-01-28T00:24:32.935Z,66.19
2023-01-28T00:26:34.635Z,66.63
2023-01-28T00:28:36.351Z,65.58
2023-01-28T00:30:38.039Z,66.16
2023-01-28T00:32:39.639Z,64.88
2023-01-28T00:34:42.464Z,65.30
2023-01-28T00:36:44.009Z,65.22
2023-01-28T00:38:51.269Z,66.15
2023-01-28T00:40:53.213Z,65.17
2023-01-28T00:42:54.770Z,66.14
2023-01-28T00:44:56.387Z,65.15
2023-01-28T00:46:58.178Z,66.17
2023-01-28T00:48:59.852Z,66.22
2023-01-28T00:51:01.517Z,65.27
2023-01-28T00:53:03.261Z,65.57
2023-01-28T00:55:09.215Z,66.12
2023-01-28T00:57:11.029Z,65.58
2023-01-28T00:59:12.748Z,65.62
2023-01-28T01:01:17.259Z,65.12
2023-01-28T01:03:19.748Z,65.52
2023-01-28T01:05:21.322Z,65.52
2023-01-28T01:07:23.229Z,65.30
2023-01-28T01:09:25.242Z,65.91
2023-01-28T01:11:28.894Z,65.23
2023-01-28T01:13:32.334Z,65.67
2023-01-28T01:15:34.256Z,65.55
2023-01-28T01:17:36.786Z,65.33
2023-01-28T01:19:38.519Z,65.59
2023-01-28T01:21:40.211Z,65.20
2023-01-28T01:23:42.060Z,66.22
2023-01-28T01:25:43.628Z,66.16
2023-01-28T01:27:50.184Z,66.49
2023-01-28T01:29:51.932Z,66.46
2023-01-28T01:31:53.613Z,67.18
2023-01-28T01:33:55.746Z,66.28
2023-01-28T01:35:57.925Z,66.21
2023-01-28T01:37:59.536Z,66.71
2023-01-28T01:40:01.284Z,66.66
2023-01-28T01:42:03.261Z,66.67
2023-01-28T01:44:06.793Z,66.24
2023-01-28T01:46:08.818Z,66.30
2023-01-28T01:48:18.863Z,66.47
2023-01-28T01:50:27.840Z,66.80
2023-01-28T01:52:33.777Z,66.87
2023-01-28T01:54:38.708Z,66.51
2023-01-28T01:56:45.034Z,66.02
2023-01-28T01:58:50.822Z,65.68
2023-01-28T02:00:53.765Z,65.80
2023-01-28T02:02:55.797Z,66.50
2023-01-28T02:04:57.586Z,66.43
2023-01-28T02:07:01.614Z,66.31
2023-01-28T02:09:06.885Z,65.64
2023-01-28T02:11:10.258Z,66.33
2023-01-28T02:13:13.706Z,65.51
2023-01-28T02:15:19.327Z,65.45
2023-01-28T02:17:22.748Z,66.19
2023-01-28T02:19:29.844Z,66.35
2023-01-28T02:22:05.898Z,66.29
2023-01-28T02:24:24.990Z,65.42
2023-01-28T02:26:53.640Z,65.67
2023-01-28T02:29:03.837Z,65.71
2023-01-28T02:31:14.265Z,66.27
2023-01-28T02:33:20.695Z,66.32
2023-01-28T02:35:29.315Z,65.85
2023-01-28T02:37:37.992Z,65.54
2023-01-28T02:39:46.363Z,65.64
2023-01-28T02:41:55.115Z,65.64
2023-01-28T02:43:58.211Z,65.77
2023-01-28T02:46:02.396Z,65.06
2023-01-28T02:48:04.215Z,65.60
2023-01-28T02:50:09.831Z,64.75
2023-01-28T02:52:25.965Z,65.43
2023-01-28T02:54:35.786Z,64.70
2023-01-28T02:56:47.164Z,65.32
2023-01-28T02:58:59.750Z,65.44
2023-01-28T03:01:11.178Z,65.82
2023-01-28T03:03:20.712Z,65.71
2023-01-28T03:05:27.888Z,65.58
2023-01-28T03:07:33.407Z,65.69
2023-01-28T03:09:36.678Z,65.60
2023-01-28T03:11:42.371Z,65.51
2023-01-28T03:13:46.423Z,65.97
2023-01-28T03:15:48.944Z,65.69
2023-01-28T03:17:58.848Z,66.28
2023-01-28T03:20:00.851Z,65.16
2023-01-28T03:22:04.669Z,65.21
2023-01-28T03:24:12.145Z,64.54
2023-01-28T03:26:16.018Z,63.40
2023-01-28T03:28:21.315Z,63.12
2023-01-28T03:30:29.419Z,63.37
2023-01-28T03:32:32.622Z,63.21
2023-01-28T03:34:36.072Z,63.25
2023-01-28T03:36:37.726Z,63.19
2023-01-28T03:38:41.803Z,63.49
2023-01-28T03:40:49.337Z,64.17
2023-01-28T03:42:51.043Z,63.01
2023-01-28T03:44:55.015Z,63.27
2023-01-28T03:46:56.807Z,63.20
2023-01-28T03:48:58.580Z,63.63
2023-01-28T03:51:01.806Z,63.83
2023-01-28T03:53:03.432Z,63.19
2023-01-28T03:55:05.663Z,64.31
2023-01-28T03:57:07.175Z,64.43
2023-01-28T03:59:08.861Z,62.81
2023-01-28T04:01:10.412Z,62.21
2023-01-28T04:03:13.960Z,61.84
2023-01-28T04:05:16.814Z,61.68
2023-01-28T04:07:20.347Z,61.97
2023-01-28T04:09:22.468Z,62.46
2023-01-28T04:11:24.150Z,61.09
2023-01-28T04:13:25.910Z,62.29
2023-01-28T04:15:27.597Z,62.03
2023-01-28T04:17:29.630Z,62.63
2023-01-28T04:19:31.318Z,61.22
2023-01-28T04:21:33.327Z,61.31
2023-01-28T04:23:36.721Z,62.00
2023-01-28T04:25:38.317Z,61.67
2023-01-28T04:27:40.063Z,62.14
2023-01-28T04:29:41.548Z,62.54
2023-01-28T04:31:43.261Z,62.63
2023-01-28T04:33:45.151Z,63.10
2023-01-28T04:35:46.833Z,63.37
2023-01-28T04:37:48.403Z,63.34
2023-01-28T04:39:51.385Z,63.46
2023-01-28T04:41:53.015Z,64.27
2023-01-28T04:43:54.821Z,63.42
2023-01-28T04:45:56.368Z,62.62
2023-01-28T04:47:57.963Z,62.78
2023-01-28T04:49:59.922Z,61.93
2023-01-28T04:52:01.691Z,62.60
2023-01-28T04:54:03.681Z,62.13
2023-01-28T04:56:07.009Z,62.89
2023-01-28T04:58:09.295Z,63.04
2023-01-28T05:00:11.972Z,63.59
2023-01-28T05:02:13.940Z,63.72
2023-01-28T05:04:15.829Z,62.97
2023-01-28T05:06:17.440Z,63.24
2023-01-28T05:08:19.190Z,63.11
2023-01-28T05:10:23.462Z,62.49
2023-01-28T05:12:27.401Z,62.37
2023-01-28T05:14:29.129Z,61.91
2023-01-28T05:16:30.858Z,62.44
2023-01-28T05:18:32.420Z,62.78
2023-01-28T05:20:34.201Z,62.87
2023-01-28T05:22:35.847Z,63.31
2023-01-28T05:24:37.769Z,63.53
2023-01-28T05:26:39.553Z,63.29
2023-01-28T05:28:42.715Z,63.05
2023-01-28T05:30:44.497Z,63.23
2023-01-28T05:32:46.366Z,62.60
2023-01-28T05:34:48.457Z,62.54
2023-01-28T05:36:50.139Z,62.15
2023-01-28T05:38:51.768Z,62.33
2023-01-28T05:40:53.622Z,63.73
2023-01-28T05:42:55.350Z,63.54
2023-01-28T05:44:58.282Z,62.83
2023-01-28T05:46:59.903Z,63.19
2023-01-28T05:49:01.858Z,62.43
2023-01-28T05:51:04.388Z,62.56
2023-01-28T05:53:06.144Z,62.63
2023-01-28T05:55:08.905Z,61.99
2023-01-28T05:57:11.173Z,62.57
2023-01-28T05:59:13.661Z,62.10
2023-01-28T06:01:16.712Z,62.28
2023-01-28T06:03:18.375Z,61.65
2023-01-28T06:05:20.701Z,61.55
2023-01-28T06:07:22.399Z,61.86
2023-01-28T06:09:25.049Z,61.61
2023-01-28T06:11:26.712Z,61.92
2023-01-28T06:13:28.456Z,61.08
2023-01-28T06:15:30.217Z,61.08
2023-01-28T06:17:33.203Z,60.94
2023-01-28T06:19:34.742Z,60.99
2023-01-28T06:21:36.387Z,60.70
2023-01-28T06:23:38.206Z,60.54
2023-01-28T06:25:40.094Z,60.40
2023-01-28T06:27:41.782Z,61.13
2023-01-28T06:29:43.407Z,60.75
2023-01-28T06:31:44.976Z,60.09
2023-01-28T06:33:47.955Z,60.68
2023-01-28T06:35:49.690Z,60.42
2023-01-28T06:37:51.298Z,60.57
2023-01-28T06:39:52.935Z,60.10
2023-01-28T06:41:55.853Z,60.92
2023-01-28T06:43:57.814Z,61.22
2023-01-28T06:45:59.504Z,61.15
2023-01-28T06:48:01.309Z,61.67
2023-01-28T06:50:04.925Z,60.90
2023-01-28T06:52:07.268Z,60.57
2023-01-28T06:54:08.918Z,61.70
2023-01-28T06:56:11.157Z,61.71
2023-01-28T06:58:14.314Z,61.28
2023-01-28T07:00:17.097Z,61.12
2023-01-28T07:02:18.974Z,60.90
2023-01-28T07:04:21.189Z,60.95
2023-01-28T07:06:24.437Z,60.82
2023-01-28T07:08:26.029Z,60.35
2023-01-28T07:10:28.212Z,60.76
2023-01-28T07:12:31.551Z,60.11
2023-01-28T07:14:33.642Z,60.20
2023-01-28T07:16:37.597Z,60.75
2023-01-28T07:18:39.266Z,60.31
2023-01-28T07:20:41.000Z,60.63
2023-01-28T07:22:45.283Z,60.80
2023-01-28T07:24:46.788Z,61.07
2023-01-28T07:26:48.498Z,60.66
2023-01-28T07:28:50.199Z,60.95
2023-01-28T07:30:53.655Z,60.69
2023-01-28T07:32:56.641Z,61.36
2023-01-28T07:34:58.369Z,61.00
2023-01-28T07:37:01.795Z,61.20
2023-01-28T07:39:05.558Z,61.59
2023-01-28T07:41:07.317Z,61.25
2023-01-28T07:43:11.353Z,60.58
2023-01-28T07:45:12.951Z,61.77
2023-01-28T07:47:14.619Z,61.63
2023-01-28T07:49:16.313Z,60.96
2023-01-28T07:51:18.030Z,60.83
2023-01-28T07:53:19.886Z,61.14
2023-01-28T07:55:23.383Z,61.07
2023-01-28T07:57:24.986Z,61.09
2023-01-28T07:59:27.004Z,61.73
2023-01-28T08:01:33.878Z,61.63
2023-01-28T08:03:35.694Z,61.81
2023-01-28T08:05:41.208Z,62.09
2023-01-28T08:07:42.818Z,61.29
2023-01-28T08:09:44.361Z,61.89
2023-01-28T08:11:47.186Z,62.13
2023-01-28T08:13:48.947Z,61.57
2023-01-28T08:15:55.797Z,61.54
2023-01-28T08:17:58.998Z,61.75
2023-01-28T08:20:00.613Z,60.89
2023-01-28T08:22:02.708Z,60.94
2023-01-28T08:24:05.427Z,60.95
2023-01-28T08:26:07.171Z,61.11
2023-01-28T08:28:11.107Z,61.09
2023-01-28T08:30:13.615Z,60.98
2023-01-28T08:32:18.603Z,60.95
2023-01-28T08:34:21.885Z,61.40
2023-01-28T08:36:25.716Z,61.59
2023-01-28T08:38:27.444Z,61.01
2023-01-28T08:40:29.776Z,60.99
2023-01-28T08:42:32.660Z,61.19
2023-01-28T08:44:35.633Z,60.53
2023-01-28T08:46:37.191Z,61.26
2023-01-28T08:48:41.371Z,61.24
2023-01-28T08:50:43.576Z,61.04
2023-01-28T08:52:45.855Z,61.52
2023-01-28T08:54:47.420Z,60.94
2023-01-28T08:56:49.466Z,60.85
2023-01-28T08:58:51.165Z,60.83
2023-01-28T09:00:54.343Z,61.48
2023-01-28T09:02:55.835Z,60.67
2023-01-28T09:04:57.433Z,60.84
2023-01-28T09:06:58.971Z,61.14
2023-01-28T09:09:01.932Z,60.55
2023-01-28T09:11:05.428Z,60.10
2023-01-28T09:13:08.106Z,61.01
2023-01-28T09:15:10.914Z,61.00
2023-01-28T09:17:14.245Z,60.62
2023-01-28T09:19:15.906Z,60.53
2023-01-28T09:21:17.868Z,60.53
2023-01-28T09:23:19.559Z,60.38
2023-01-28T09:25:21.472Z,60.49
2023-01-28T09:27:23.012Z,59.79
2023-01-28T09:29:24.798Z,59.94
2023-01-28T09:31:26.452Z,60.09
2023-01-28T09:33:30.036Z,59.78
2023-01-28T09:35:31.754Z,59.69
2023-01-28T09:37:33.457Z,60.21
2023-01-28T09:39:34.971Z,59.67
2023-01-28T09:41:50.904Z,61.16
2023-01-28T09:44:05.279Z,61.44
2023-01-28T09:46:11.003Z,60.31
2023-01-28T09:48:16.285Z,61.04
2023-01-28T09:50:26.519Z,60.27
2023-01-28T09:52:33.790Z,60.87
2023-01-28T09:54:42.361Z,61.19
2023-01-28T09:56:46.492Z,60.92
2023-01-28T09:58:48.204Z,60.03
2023-01-28T10:00:57.190Z,60.83
2023-01-28T10:03:19.891Z,61.51
2023-01-28T10:05:32.446Z,61.20
2023-01-28T10:07:42.733Z,60.30
2023-01-28T10:09:51.121Z,61.06
2023-01-28T10:12:10.910Z,61.47
2023-01-28T10:14:24.523Z,61.56
2023-01-28T10:16:31.377Z,61.49
2023-01-28T10:18:44.287Z,61.76
2023-01-28T10:20:49.807Z,61.38
2023-01-28T10:22:55.961Z,60.94
2023-01-28T10:25:02.998Z,61.51
2023-01-28T10:27:13.275Z,62.23
2023-01-28T10:29:18.336Z,62.14
2023-01-28T10:31:21.781Z,62.30
2023-01-28T10:33:31.738Z,62.41
2023-01-28T10:35:38.632Z,61.86
2023-01-28T10:37:41.828Z,61.55
2023-01-28T10:39:44.821Z,62.46
2023-01-28T10:41:57.422Z,61.74
2023-01-28T10:43:59.740Z,61.34
2023-01-28T10:46:06.883Z,61.49
2023-01-28T10:48:16.609Z,61.51
2023-01-28T10:50:22.860Z,61.47
2023-01-28T10:52:24.776Z,61.25
2023-01-28T10:54:28.941Z,61.21
2023-01-28T10:56:32.651Z,61.22
2023-01-28T10:58:37.156Z,60.54
2023-01-28T11:00:38.998Z,60.72
2023-01-28T11:02:42.067Z,61.01
2023-01-28T11:04:43.627Z,60.66
2023-01-28T11:06:53.211Z,61.24
2023-01-28T11:08:55.127Z,60.41
2023-01-28T11:10:59.101Z,60.74
2023-01-28T11:13:04.132Z,60.10
2023-01-28T11:15:07.044Z,59.73
2023-01-28T11:17:17.375Z,61.21
2023-01-28T11:19:20.817Z,60.22
2023-01-28T11:21:25.560Z,59.70
2023-01-28T11:23:29.745Z,60.18
2023-01-28T11:25:34.280Z,60.31
2023-01-28T11:27:37.462Z,60.57
2023-01-28T11:29:40.682Z,61.26
2023-01-28T11:31:44.289Z,60.93
2023-01-28T11:33:50.405Z,60.67
2023-01-28T11:35:55.991Z,61.87
2023-01-28T11:37:58.211Z,61.01
2023-01-28T11:40:14.441Z,61.80
2023-01-28T11:42:19.080Z,61.36
2023-01-28T11:44:24.143Z,60.92
2023-01-28T11:46:46.970Z,61.60
2023-01-28T11:48:59.706Z,61.02
2023-01-28T11:51:06.174Z,61.10
2023-01-28T11:53:25.002Z,60.83
2023-01-28T11:55:39.474Z,61.04
2023-01-28T11:57:53.828Z,60.80
2023-01-28T12:00:12.459Z,60.29
2023-01-28T12:02:30.370Z,60.73
2023-01-28T12:04:49.423Z,60.71
2023-01-28T12:07:10.261Z,60.25
2023-01-28T12:09:21.796Z,59.57
2023-01-28T12:11:31.270Z,58.96
2023-01-28T12:13:48.858Z,58.84
2023-01-28T12:19:00.164Z,58.50
2023-01-28T12:21:05.002Z,57.11
2023-01-28T12:23:25.294Z,57.20
2023-01-28T12:25:39.484Z,56.90
2023-01-28T12:27:50.044Z,56.91
2023-01-28T12:29:58.333Z,56.38
2023-01-28T12:32:31.721Z,57.37
2023-01-28T12:34:52.434Z,57.71
2023-01-28T12:37:03.239Z,56.81
2023-01-28T12:39:16.674Z,56.88
2023-01-28T12:41:21.152Z,56.17
2023-01-28T12:43:36.078Z,56.89
2023-01-28T12:45:41.171Z,56.63
2023-01-28T12:47:49.457Z,56.81
2023-01-28T12:49:57.843Z,58.11
2023-01-28T12:52:04.836Z,57.89
2023-01-28T12:54:16.572Z,58.24
2023-01-28T12:56:22.681Z,57.90
2023-01-28T12:58:35.914Z,58.02
2023-01-28T13:00:45.240Z,56.93
2023-01-28T13:02:53.727Z,56.87
2023-01-28T13:05:04.915Z,57.19
2023-01-28T13:07:13.770Z,56.80
2023-01-28T13:09:19.468Z,55.94
2023-01-28T13:11:21.646Z,54.47
2023-01-28T13:13:30.707Z,56.40
2023-01-28T13:15:36.410Z,53.87
2023-01-28T13:17:38.041Z,53.66
2023-01-28T13:19:43.045Z,54.29
2023-01-28T13:21:49.561Z,54.56
2023-01-28T13:24:03.534Z,54.52
2023-01-28T13:26:27.869Z,55.73
2023-01-28T13:28:32.145Z,54.61
2023-01-28T13:30:36.077Z,53.43
2023-01-28T13:32:37.896Z,52.82
2023-01-28T13:34:42.613Z,53.07
2023-01-28T13:36:48.983Z,53.16
2023-01-28T13:39:02.028Z,54.66
2023-01-28T13:41:03.883Z,52.54
2023-01-28T13:43:07.067Z,53.26
2023-01-28T13:45:22.144Z,54.62
2023-01-28T13:47:29.991Z,53.36
2023-01-28T13:49:38.261Z,53.74
2023-01-28T13:51:54.399Z,53.91
2023-01-28T13:54:01.221Z,53.69
2023-01-28T13:56:07.981Z,54.21
2023-01-28T13:58:44.475Z,54.21
2023-01-28T14:01:13.210Z,53.95
2023-01-28T14:03:42.829Z,55.29
2023-01-28T14:06:09.475Z,54.45
2023-01-28T14:08:43.434Z,55.57
2023-01-28T14:10:57.624Z,53.99
2023-01-28T14:13:14.575Z,54.57
2023-01-28T14:15:43.788Z,55.13
2023-01-28T14:17:47.979Z,53.68
2023-01-28T14:19:52.355Z,54.28
2023-01-28T14:21:54.093Z,54.12
2023-01-28T14:23:58.493Z,54.32
2023-01-28T14:26:16.665Z,54.69
2023-01-28T14:28:36.038Z,54.46
2023-01-28T14:30:47.717Z,54.37
2023-01-28T14:32:52.449Z,53.81
2023-01-28T14:34:55.915Z,54.33
2023-01-28T14:37:00.686Z,54.18
2023-01-28T14:39:04.015Z,54.01
2023-01-28T14:41:06.056Z,54.73
2023-01-28T14:43:13.600Z,54.34
2023-01-28T14:45:30.274Z,55.69
2023-01-28T14:47:58.683Z,56.52
2023-01-28T14:50:21.143Z,54.96
2023-01-28T14:52:50.368Z,55.94
2023-01-28T14:55:05.320Z,55.97
2023-01-28T14:57:21.233Z,57.04
2023-01-28T14:59:28.189Z,56.07
2023-01-28T15:01:31.430Z,56.60
2023-01-28T15:03:33.728Z,56.46
2023-01-28T15:05:35.503Z,56.53
2023-01-28T15:07:37.203Z,56.66
2023-01-28T15:09:38.988Z,57.04
2023-01-28T15:11:45.733Z,57.31
2023-01-28T15:13:49.731Z,56.47
2023-01-28T15:15:52.268Z,57.51
2023-01-28T15:17:54.759Z,56.79
2023-01-28T15:19:57.690Z,57.09
2023-01-28T15:22:02.252Z,57.23
2023-01-28T15:24:04.562Z,57.95
2023-01-28T15:26:07.569Z,57.57
2023-01-28T15:28:23.993Z,58.10
2023-01-28T15:30:28.180Z,57.71
2023-01-28T15:32:31.564Z,57.88
2023-01-28T15:34:33.226Z,57.88
2023-01-28T15:36:35.146Z,58.55
2023-01-28T15:38:36.787Z,58.65
2023-01-28T15:40:42.955Z,58.50
2023-01-28T15:42:46.733Z,58.96
2023-01-28T15:44:50.619Z,58.99
2023-01-28T15:46:52.612Z,58.87
2023-01-28T15:48:59.593Z,58.67
2023-01-28T15:51:05.022Z,59.20
2023-01-28T15:53:08.827Z,59.28
2023-01-28T15:55:30.732Z,59.60
2023-01-28T15:57:34.721Z,58.95
2023-01-28T15:59:36.630Z,59.23
2023-01-28T16:01:39.730Z,59.37
2023-01-28T16:03:43.528Z,59.81
2023-01-28T16:05:56.626Z,60.45
2023-01-28T16:07:58.639Z,59.53
2023-01-28T16:10:02.135Z,59.67
2023-01-28T16:12:07.189Z,60.04
2023-01-28T16:14:21.842Z,60.85
2023-01-28T16:16:33.899Z,59.77
2023-01-28T16:18:41.310Z,60.18
2023-01-28T16:20:48.403Z,60.55
2023-01-28T16:22:51.539Z,60.53
2023-01-28T16:24:54.419Z,61.73
2023-01-28T16:26:57.195Z,60.80
2023-01-28T16:29:01.384Z,60.35
2023-01-28T16:31:03.125Z,60.89
2023-01-28T16:33:04.693Z,60.37
2023-01-28T16:35:15.414Z,60.78
2023-01-28T16:37:17.300Z,60.34
2023-01-28T16:39:19.074Z,61.01
2023-01-28T16:41:27.392Z,60.49
2023-01-28T16:43:29.222Z,60.07
2023-01-28T16:45:31.072Z,60.83
2023-01-28T16:47:34.161Z,61.11
2023-01-28T16:49:36.268Z,61.00
2023-01-28T16:51:42.391Z,60.94
2023-01-28T16:53:45.811Z,60.61
2023-01-28T16:55:50.486Z,60.43
2023-01-28T16:57:55.394Z,61.02
2023-01-28T16:59:57.186Z,60.90
2023-01-28T17:01:58.856Z,61.06
2023-01-28T17:04:00.545Z,61.47
2023-01-28T17:06:02.245Z,61.06
2023-01-28T17:08:05.930Z,61.19
2023-01-28T17:10:08.886Z,60.60
2023-01-28T17:12:10.522Z,60.79
2023-01-28T17:14:12.338Z,61.40
2023-01-28T17:16:14.083Z,61.39
2023-01-28T17:18:16.026Z,60.85
2023-01-28T17:20:18.109Z,61.13
2023-01-28T17:22:19.750Z,61.44
2023-01-28T17:24:22.956Z,61.01
2023-01-28T17:26:24.483Z,61.38
2023-01-28T17:28:26.023Z,61.42
2023-01-28T17:30:27.528Z,61.54
2023-01-28T17:32:29.339Z,61.47
2023-01-28T17:34:30.877Z,61.66
2023-01-28T17:36:32.583Z,61.35
2023-01-28T17:38:34.661Z,61.91
2023-01-28T17:40:37.580Z,62.28
2023-01-28T17:42:39.542Z,61.54
2023-01-28T17:44:41.339Z,62.16
2023-01-28T17:46:43.273Z,62.20
2023-01-28T17:48:44.992Z,62.13
2023-01-28T17:50:46.540Z,62.30
2023-01-28T17:52:48.230Z,62.59
2023-01-28T17:54:49.937Z,61.94
2023-01-28T17:56:53.215Z,61.99
2023-01-28T17:58:56.815Z,61.83
2023-01-28T18:00:58.467Z,62.69
2023-01-28T18:03:00.614Z,62.04
2023-01-28T18:05:02.195Z,62.63
2023-01-28T18:07:03.908Z,62.15
2023-01-28T18:09:05.991Z,62.71
2023-01-28T18:11:08.137Z,61.98
2023-01-28T18:13:11.165Z,62.05
2023-01-28T18:15:12.908Z,62.68
2023-01-28T18:17:14.747Z,62.87
2023-01-28T18:19:16.314Z,61.99
2023-01-28T18:21:23.418Z,62.56
2023-01-28T18:23:25.331Z,62.11
2023-01-28T18:25:26.937Z,62.39
2023-01-28T18:27:28.585Z,62.89
2023-01-28T18:29:31.849Z,62.59
2023-01-28T18:31:33.582Z,63.09
2023-01-28T18:33:35.168Z,62.89
2023-01-28T18:35:41.556Z,62.67
2023-01-28T18:37:43.259Z,63.09
2023-01-28T18:39:44.835Z,63.20
2023-01-28T18:41:46.878Z,62.75
2023-01-28T18:43:48.825Z,63.22
2023-01-28T18:45:54.366Z,63.32
2023-01-28T18:47:55.899Z,62.63
2023-01-28T18:49:57.470Z,63.24
2023-01-28T18:51:59.188Z,63.44
2023-01-28T18:54:02.948Z,63.43
2023-01-28T18:56:06.433Z,63.11
2023-01-28T18:58:08.232Z,63.38
2023-01-28T19:00:11.052Z,63.34
2023-01-28T19:02:14.277Z,63.15
2023-01-28T19:04:16.582Z,63.26
2023-01-28T19:06:18.283Z,63.70
2023-01-28T19:08:21.026Z,63.33
2023-01-28T19:10:22.784Z,63.00
2023-01-28T19:12:24.594Z,63.06
2023-01-28T19:14:26.470Z,63.64
2023-01-28T19:16:28.509Z,62.71
2023-01-28T19:18:31.848Z,63.42
2023-01-28T19:20:33.456Z,62.92
2023-01-28T19:22:35.174Z,63.40
2023-01-28T19:24:37.027Z,63.57
2023-01-28T19:26:38.805Z,63.58
2023-01-28T19:28:40.556Z,63.09
2023-01-28T19:30:42.203Z,63.29
2023-01-28T19:32:44.118Z,63.46
2023-01-28T19:34:47.012Z,63.56
2023-01-28T19:36:48.660Z,63.34
2023-01-28T19:38:50.304Z,63.60
2023-01-28T19:40:52.069Z,63.96
2023-01-28T19:42:54.503Z,63.49
2023-01-28T19:44:56.099Z,63.51
2023-01-28T19:46:57.841Z,63.46
2023-01-28T19:48:59.602Z,64.37
2023-01-28T19:51:07.676Z,64.27
2023-01-28T19:53:09.355Z,63.63
2023-01-28T19:55:11.021Z,63.91
2023-01-28T19:57:12.638Z,64.30
2023-01-28T19:59:14.252Z,64.66
2023-01-28T20:01:17.729Z,64.28
2023-01-28T20:03:19.487Z,64.56
2023-01-28T20:05:21.302Z,64.90
2023-01-28T20:07:24.198Z,64.51
2023-01-28T20:09:25.932Z,64.70
2023-01-28T20:11:27.786Z,65.11
2023-01-28T20:13:30.887Z,65.44
2023-01-28T20:15:32.655Z,64.99
2023-01-28T20:17:34.530Z,65.17
2023-01-28T20:19:36.131Z,65.44
2023-01-28T20:21:37.641Z,65.81
2023-01-28T20:23:40.611Z,66.31
2023-01-28T20:25:42.446Z,66.57
2023-01-28T20:27:47.140Z,66.23
2023-01-28T20:29:48.695Z,66.73
2023-01-28T20:32:05.124Z,67.07
2023-01-28T20:34:14.928Z,67.18
2023-01-28T20:36:17.943Z,67.21
2023-01-28T20:38:19.935Z,67.54
2023-01-28T20:40:23.027Z,67.38
2023-01-28T20:42:24.528Z,68.19
2023-01-28T20:44:26.318Z,68.76
2023-01-28T20:46:29.822Z,69.20
2023-01-28T20:48:31.715Z,69.43
2023-01-28T20:50:34.902Z,69.61
2023-01-28T20:52:36.625Z,69.50
2023-01-28T20:54:38.403Z,70.38
2023-01-28T20:56:41.290Z,70.91
2023-01-28T20:58:42.858Z,70.86
2023-01-28T21:00:44.339Z,70.33
2023-01-28T21:02:45.977Z,70.61
2023-01-28T21:04:47.548Z,70.96
2023-01-28T21:06:49.163Z,70.90
2023-01-28T21:08:51.453Z,71.11
2023-01-28T21:10:54.960Z,71.23
2023-01-28T21:12:58.326Z,70.96
2023-01-28T21:15:00.241Z,71.78
2023-01-28T21:17:01.902Z,71.47
2023-01-28T21:19:03.587Z,72.11
2023-01-28T21:21:07.634Z,71.78
2023-01-28T21:23:09.201Z,71.60
2023-01-28T21:25:10.891Z,71.91
2023-01-28T21:27:12.683Z,72.15
2023-01-28T21:29:15.925Z,72.16
2023-01-28T21:31:19.722Z,72.06
2023-01-28T21:33:21.310Z,72.05
2023-01-28T21:35:23.141Z,72.75
2023-01-28T21:37:25.576Z,72.75
2023-01-28T21:39:27.401Z,72.45
2023-01-28T21:41:29.182Z,73.09
2023-01-28T21:43:31.611Z,72.73
2023-01-28T21:45:34.669Z,72.65
2023-01-28T21:47:36.224Z,73.14
2023-01-28T21:49:37.865Z,72.88
2023-01-28T21:51:39.701Z,73.68
2023-01-28T21:53:42.360Z,72.83
2023-01-28T21:55:44.864Z,73.60
2023-01-28T21:57:48.088Z,73.31
2023-01-28T21:59:49.887Z,73.11
2023-01-28T22:01:53.258Z,73.26
2023-01-28T22:03:54.849Z,73.21
2023-01-28T22:05:56.439Z,73.64
2023-01-28T22:07:58.053Z,73.51
2023-01-28T22:09:59.714Z,73.19
2023-01-28T22:12:02.112Z,73.06
2023-01-28T22:14:04.153Z,73.78
2023-01-28T22:16:09.255Z,73.06
2023-01-28T22:18:12.517Z,73.35
2023-01-28T22:20:14.674Z,73.19
2023-01-28T22:22:17.565Z,73.30
2023-01-28T22:24:21.057Z,73.40
2023-01-28T22:26:22.725Z,73.84
2023-01-28T22:28:25.508Z,74.09
2023-01-28T22:30:29.188Z,73.58
2023-01-28T22:32:30.782Z,73.54
2023-01-28T22:34:33.850Z,74.23
2023-01-28T22:36:35.695Z,73.81
2023-01-28T22:38:37.340Z,74.61
2023-01-28T22:40:39.319Z,73.79
2023-01-28T22:42:41.023Z,74.51
2023-01-28T22:44:42.711Z,74.65
2023-01-28T22:46:44.536Z,74.53
2023-01-28T22:48:46.690Z,75.03
2023-01-28T22:50:49.607Z,74.61
2023-01-28T22:52:51.146Z,75.13
2023-01-28T22:54:52.659Z,75.42
2023-01-28T22:56:54.209Z,75.03
2023-01-28T22:58:56.711Z,75.20
2023-01-28T23:00:58.453Z,75.31
2023-01-28T23:03:00.385Z,74.93
2023-01-28T23:05:02.074Z,75.33
2023-01-28T23:07:05.381Z,75.61
2023-01-28T23:09:07.321Z,76.37
2023-01-28T23:11:09.601Z,75.74
2023-01-28T23:13:11.628Z,76.49
2023-01-28T23:15:13.766Z,76.76
2023-01-28T23:17:15.788Z,76.96
2023-01-28T23:19:20.534Z,76.52
2023-01-28T23:21:24.107Z,77.01
2023-01-28T23:23:27.538Z,75.95
2023-01-28T23:25:29.251Z,76.11
2023-01-28T23:27:31.088Z,76.82
2023-01-28T23:29:32.652Z,76.30
2023-01-28T23:31:34.442Z,76.63
2023-01-28T23:33:36.153Z,76.69
2023-01-28T23:35:38.755Z,77.01
2023-01-28T23:37:40.402Z,76.35
2023-01-28T23:39:43.379Z,76.89
2023-01-28T23:41:45.120Z,76.63
2023-01-28T23:43:46.817Z,76.26
2023-01-28T23:45:48.836Z,76.69
2023-01-28T23:47:50.676Z,76.36
2023-01-28T23:49:52.327Z,76.31
2023-01-28T23:51:54.007Z,76.84
2023-01-28T23:53:55.564Z,76.28
2023-01-28T23:55:58.506Z,77.35
2023-01-28T23:58:00.270Z,76.58
